sensor_id;sensor_type;location;lat;lon;timestamp;pressure;altitude;pressure_sealevel;temperature;humidity
65329;BME280;51941;52.210;5.158;2023-03-23T00:02:19;100060.47;;;12.16;100.00
65329;BME280;51941;52.210;5.158;2023-03-23T00:04:46;100065.97;;;12.09;100.00
65329;BME280;51941;52.210;5.158;2023-03-23T00:07:14;100060.94;;;12.13;100.00
65329;BME280;51941;52.210;5.158;2023-03-23T00:09:47;100080.06;;;12.15;100.00
65329;BME280;51941;52.210;5.158;2023-03-23T00:12:20;100072.59;;;12.12;100.00
65329;BME280;51941;52.210;5.158;2023-03-23T00:14:58;100042.28;;;11.93;100.00
65329;BME280;51941;52.210;5.158;2023-03-23T00:17:26;100074.19;;;12.08;100.00
65329;BME280;51941;52.210;5.158;2023-03-23T00:19:52;100061.97;;;12.12;100.00
65329;BME280;51941;52.210;5.158;2023-03-23T00:22:19;100063.91;;;12.16;100.00
65329;BME280;51941;52.210;5.158;2023-03-23T00:24:47;100030.09;;;12.02;100.00
65329;BME280;51941;52.210;5.158;2023-03-23T00:27:15;100064.44;;;12.18;100.00
65329;BME280;51941;52.210;5.158;2023-03-23T00:29:44;100068.97;;;12.18;100.00
65329;BME280;51941;52.210;5.158;2023-03-23T00:32:14;100058.53;;;12.11;100.00
65329;BME280;51941;52.210;5.158;2023-03-23T00:34:42;100053.56;;;12.15;100.00
65329;BME280;51941;52.210;5.158;2023-03-23T00:37:11;100064.13;;;12.10;100.00
65329;BME280;51941;52.210;5.158;2023-03-23T00:39:38;100042.94;;;12.15;100.00
65329;BME280;51941;52.210;5.158;2023-03-23T00:42:12;100043.22;;;12.18;100.00
65329;BME280;51941;52.210;5.158;2023-03-23T00:44:39;100013.69;;;12.05;100.00
65329;BME280;51941;52.210;5.158;2023-03-23T00:47:07;100043.78;;;12.26;100.00
65329;BME280;51941;52.210;5.158;2023-03-23T00:49:37;100042.19;;;12.25;100.00
65329;BME280;51941;52.210;5.158;2023-03-23T00:52:05;100038.72;;;12.29;100.00
65329;BME280;51941;52.210;5.158;2023-03-23T00:54:33;100032.09;;;12.32;100.00
65329;BME280;51941;52.210;5.158;2023-03-23T00:57:00;100027.84;;;12.31;100.00
65329;BME280;51941;52.210;5.158;2023-03-23T00:59:27;100022.00;;;12.29;100.00
65329;BME280;51941;52.210;5.158;2023-03-23T01:01:55;100024.66;;;12.29;100.00
65329;BME280;51941;52.210;5.158;2023-03-23T01:04:23;100023.34;;;12.31;100.00
65329;BME280;51941;52.210;5.158;2023-03-23T01:06:50;100022.28;;;12.32;100.00
65329;BME280;51941;52.210;5.158;2023-03-23T01:09:18;100023.34;;;12.26;100.00
65329;BME280;51941;52.210;5.158;2023-03-23T01:11:48;100027.34;;;12.34;100.00
65329;BME280;51941;52.210;5.158;2023-03-23T01:14:17;100028.41;;;12.38;100.00
65329;BME280;51941;52.210;5.158;2023-03-23T01:16:44;100023.09;;;12.38;100.00
65329;BME280;51941;52.210;5.158;2023-03-23T01:19:11;100021.78;;;12.35;100.00
65329;BME280;51941;52.210;5.158;2023-03-23T01:21:40;100022.84;;;12.34;100.00
65329;BME280;51941;52.210;5.158;2023-03-23T01:24:07;99994.69;;;12.38;100.00
65329;BME280;51941;52.210;5.158;2023-03-23T01:26:34;99998.41;;;12.27;100.00
65329;BME280;51941;52.210;5.158;2023-03-23T01:29:01;99979.56;;;12.39;100.00
65329;BME280;51941;52.210;5.158;2023-03-23T01:31:27;100001.34;;;12.41;100.00
65329;BME280;51941;52.210;5.158;2023-03-23T01:33:54;99988.38;;;12.44;100.00
65329;BME280;51941;52.210;5.158;2023-03-23T01:36:24;99999.78;;;12.45;100.00
65329;BME280;51941;52.210;5.158;2023-03-23T01:38:53;99988.38;;;12.44;100.00
65329;BME280;51941;52.210;5.158;2023-03-23T01:41:21;99985.72;;;12.44;100.00
65329;BME280;51941;52.210;5.158;2023-03-23T01:43:57;99955.66;;;12.29;100.00
65329;BME280;51941;52.210;5.158;2023-03-23T01:46:26;99952.75;;;12.20;100.00
65329;BME280;51941;52.210;5.158;2023-03-23T01:48:53;99986.47;;;12.40;100.00
65329;BME280;51941;52.210;5.158;2023-03-23T01:51:24;99984.38;;;12.42;100.00
65329;BME280;51941;52.210;5.158;2023-03-23T01:53:57;99992.34;;;12.42;100.00
65329;BME280;51941;52.210;5.158;2023-03-23T01:56:29;99982.50;;;12.42;100.00
65329;BME280;51941;52.210;5.158;2023-03-23T01:58:59;99976.94;;;12.44;100.00
65329;BME280;51941;52.210;5.158;2023-03-23T02:01:27;99967.38;;;12.38;100.00
65329;BME280;51941;52.210;5.158;2023-03-23T02:03:55;99958.09;;;12.40;100.00
65329;BME280;51941;52.210;5.158;2023-03-23T02:06:23;99967.91;;;12.40;100.00
65329;BME280;51941;52.210;5.158;2023-03-23T02:09:04;99959.66;;;12.31;100.00
65329;BME280;51941;52.210;5.158;2023-03-23T02:11:32;99954.91;;;12.33;100.00
65329;BME280;51941;52.210;5.158;2023-03-23T02:14:00;99961.25;;;12.32;100.00
65329;BME280;51941;52.210;5.158;2023-03-23T02:16:33;99961.25;;;12.32;100.00
65329;BME280;51941;52.210;5.158;2023-03-23T02:19:16;99964.44;;;12.29;100.00
65329;BME280;51941;52.210;5.158;2023-03-23T02:22:02;99969.75;;;12.34;100.00
65329;BME280;51941;52.210;5.158;2023-03-23T02:24:48;99966.81;;;12.31;100.00
65329;BME280;51941;52.210;5.158;2023-03-23T02:27:28;99962.84;;;12.28;100.00
65329;BME280;51941;52.210;5.158;2023-03-23T02:30:20;99967.63;;;12.31;100.00
65329;BME280;51941;52.210;5.158;2023-03-23T02:35:58;99938.34;;;12.11;100.00
65329;BME280;51941;52.210;5.158;2023-03-23T02:38:31;99967.09;;;12.29;100.00
65329;BME280;51941;52.210;5.158;2023-03-23T02:41:01;99967.09;;;12.34;100.00
65329;BME280;51941;52.210;5.158;2023-03-23T02:43:32;99967.63;;;12.31;100.00
65329;BME280;51941;52.210;5.158;2023-03-23T02:46:04;99954.38;;;12.26;100.00
65329;BME280;51941;52.210;5.158;2023-03-23T02:48:34;99964.72;;;12.28;100.00
65329;BME280;51941;52.210;5.158;2023-03-23T02:51:03;99968.13;;;12.28;100.00
65329;BME280;51941;52.210;5.158;2023-03-23T02:53:33;99973.22;;;12.35;100.00
65329;BME280;51941;52.210;5.158;2023-03-23T02:56:03;99968.97;;;12.39;100.00
65329;BME280;51941;52.210;5.158;2023-03-23T02:58:34;99950.38;;;12.29;100.00
65329;BME280;51941;52.210;5.158;2023-03-23T03:01:14;99959.66;;;12.31;100.00
65329;BME280;51941;52.210;5.158;2023-03-23T03:03:44;99959.69;;;12.36;100.00
65329;BME280;51941;52.210;5.158;2023-03-23T03:06:20;99954.63;;;12.40;100.00
65329;BME280;51941;52.210;5.158;2023-03-23T03:08:54;99933.94;;;12.27;100.00
65329;BME280;51941;52.210;5.158;2023-03-23T03:11:23;99951.22;;;12.44;100.00
65329;BME280;51941;52.210;5.158;2023-03-23T03:13:54;99950.41;;;12.44;100.00
65329;BME280;51941;52.210;5.158;2023-03-23T03:16:28;99955.97;;;12.47;100.00
65329;BME280;51941;52.210;5.158;2023-03-23T03:19:02;99942.44;;;12.49;100.00
65329;BME280;51941;52.210;5.158;2023-03-23T03:21:32;99940.84;;;12.53;100.00
65329;BME280;51941;52.210;5.158;2023-03-23T03:24:02;99946.41;;;12.46;100.00
65329;BME280;51941;52.210;5.158;2023-03-23T03:26:31;99936.31;;;12.48;100.00
65329;BME280;51941;52.210;5.158;2023-03-23T03:29:19;99936.88;;;12.45;100.00
65329;BME280;51941;52.210;5.158;2023-03-23T03:31:49;99938.72;;;12.45;100.00
65329;BME280;51941;52.210;5.158;2023-03-23T03:34:22;99925.47;;;12.45;100.00
65329;BME280;51941;52.210;5.158;2023-03-23T03:36:52;99935.00;;;12.41;100.00
65329;BME280;51941;52.210;5.158;2023-03-23T03:39:21;99929.41;;;12.47;100.00
65329;BME280;51941;52.210;5.158;2023-03-23T03:41:48;99926.78;;;12.52;100.00
65329;BME280;51941;52.210;5.158;2023-03-23T03:44:15;99925.72;;;12.53;100.00
65329;BME280;51941;52.210;5.158;2023-03-23T03:46:42;99933.41;;;12.55;100.00
65329;BME280;51941;52.210;5.158;2023-03-23T03:49:10;99954.38;;;12.51;100.00
65329;BME280;51941;52.210;5.158;2023-03-23T03:51:41;99924.38;;;12.31;100.00
65329;BME280;51941;52.210;5.158;2023-03-23T03:54:16;99938.44;;;12.26;100.00
65329;BME280;51941;52.210;5.158;2023-03-23T03:56:43;99924.38;;;12.26;100.00
65329;BME280;51941;52.210;5.158;2023-03-23T03:59:37;99945.63;;;12.36;100.00
65329;BME280;51941;52.210;5.158;2023-03-23T04:02:09;99966.81;;;12.21;100.00
65329;BME280;51941;52.210;5.158;2023-03-23T04:04:40;99963.63;;;12.18;100.00
65329;BME280;51941;52.210;5.158;2023-03-23T04:07:08;99974.69;;;12.05;100.00
65329;BME280;51941;52.210;5.158;2023-03-23T04:09:38;99975.50;;;12.06;100.00
65329;BME280;51941;52.210;5.158;2023-03-23T04:12:05;99969.09;;;12.02;100.00
65329;BME280;51941;52.210;5.158;2023-03-23T04:14:51;99978.91;;;11.96;100.00
65329;BME280;51941;52.210;5.158;2023-03-23T04:17:18;99984.44;;;11.85;100.00
65329;BME280;51941;52.210;5.158;2023-03-23T04:19:45;99977.47;;;11.68;100.00
65329;BME280;51941;52.210;5.158;2023-03-23T04:22:15;99986.22;;;11.69;100.00
65329;BME280;51941;52.210;5.158;2023-03-23T04:24:42;99996.03;;;11.68;100.00
65329;BME280;51941;52.210;5.158;2023-03-23T04:27:15;99979.84;;;11.65;100.00
65329;BME280;51941;52.210;5.158;2023-03-23T04:29:42;99951.00;;;11.21;100.00
65329;BME280;51941;52.210;5.158;2023-03-23T04:32:35;99964.34;;;11.41;100.00
65329;BME280;51941;52.210;5.158;2023-03-23T04:35:06;99975.84;;;11.62;100.00
65329;BME280;51941;52.210;5.158;2023-03-23T04:37:41;99976.41;;;11.64;100.00
65329;BME280;51941;52.210;5.158;2023-03-23T04:40:10;99973.50;;;11.66;100.00
65329;BME280;51941;52.210;5.158;2023-03-23T04:42:43;99972.47;;;11.72;100.00
65329;BME280;51941;52.210;5.158;2023-03-23T04:45:29;99979.06;;;11.64;100.00
65329;BME280;51941;52.210;5.158;2023-03-23T04:47:59;99980.97;;;11.74;100.00
65329;BME280;51941;52.210;5.158;2023-03-23T04:50:37;99950.41;;;11.56;100.00
65329;BME280;51941;52.210;5.158;2023-03-23T04:53:15;99997.38;;;11.76;100.00
65329;BME280;51941;52.210;5.158;2023-03-23T04:55:44;99989.41;;;11.66;100.00
65329;BME280;51941;52.210;5.158;2023-03-23T04:58:14;99993.09;;;11.65;100.00
65329;BME280;51941;52.210;5.158;2023-03-23T05:00:55;100014.38;;;11.75;100.00
65329;BME280;51941;52.210;5.158;2023-03-23T05:03:23;100020.44;;;11.70;100.00
65329;BME280;51941;52.210;5.158;2023-03-23T05:05:53;100014.63;;;11.73;100.00
65329;BME280;51941;52.210;5.158;2023-03-23T05:08:23;100022.34;;;11.80;100.00
65329;BME280;51941;52.210;5.158;2023-03-23T05:10:51;100016.22;;;11.74;100.00
65329;BME280;51941;52.210;5.158;2023-03-23T05:13:19;100017.53;;;11.77;100.00
65329;BME280;51941;52.210;5.158;2023-03-23T05:15:50;100018.34;;;11.77;100.00
65329;BME280;51941;52.210;5.158;2023-03-23T05:18:17;100011.19;;;11.73;100.00
65329;BME280;51941;52.210;5.158;2023-03-23T05:20:45;100025.72;;;11.70;100.00
65329;BME280;51941;52.210;5.158;2023-03-23T05:23:17;100034.00;;;11.79;100.00
65329;BME280;51941;52.210;5.158;2023-03-23T05:25:53;100012.19;;;11.67;100.00
65329;BME280;51941;52.210;5.158;2023-03-23T05:28:21;100026.03;;;11.74;100.00
65329;BME280;51941;52.210;5.158;2023-03-23T05:30:52;100041.13;;;11.73;100.00
65329;BME280;51941;52.210;5.158;2023-03-23T05:33:20;100039.53;;;11.72;100.00
65329;BME280;51941;52.210;5.158;2023-03-23T05:36:06;100035.22;;;11.61;100.00
65329;BME280;51941;52.210;5.158;2023-03-23T05:38:56;100040.22;;;11.58;100.00
65329;BME280;51941;52.210;5.158;2023-03-23T05:41:29;100049.75;;;11.54;100.00
65329;BME280;51941;52.210;5.158;2023-03-23T05:43:55;100056.63;;;11.50;100.00
65329;BME280;51941;52.210;5.158;2023-03-23T05:46:29;100063.25;;;11.47;100.00
65329;BME280;51941;52.210;5.158;2023-03-23T05:48:59;100067.41;;;11.38;100.00
65329;BME280;51941;52.210;5.158;2023-03-23T05:51:32;100067.66;;;11.36;100.00
65329;BME280;51941;52.210;5.158;2023-03-23T05:53:59;100076.34;;;11.32;100.00
65329;BME280;51941;52.210;5.158;2023-03-23T05:56:26;100055.16;;;11.32;100.00
65329;BME280;51941;52.210;5.158;2023-03-23T05:59:10;100053.06;;;11.34;100.00
65329;BME280;51941;52.210;5.158;2023-03-23T06:01:39;100058.66;;;11.37;100.00
65329;BME280;51941;52.210;5.158;2023-03-23T06:04:06;100031.53;;;11.25;100.00
65329;BME280;51941;52.210;5.158;2023-03-23T06:06:42;100070.09;;;11.43;100.00
65329;BME280;51941;52.210;5.158;2023-03-23T06:09:11;100069.34;;;11.48;100.00
65329;BME280;51941;52.210;5.158;2023-03-23T06:12:15;100074.34;;;11.44;100.00
65329;BME280;51941;52.210;5.158;2023-03-23T06:15:10;100069.28;;;11.42;100.00
65329;BME280;51941;52.210;5.158;2023-03-23T06:17:57;100037.66;;;11.26;100.00
65329;BME280;51941;52.210;5.158;2023-03-23T06:20:29;100084.22;;;11.54;100.00
65329;BME280;51941;52.210;5.158;2023-03-23T06:22:57;100078.66;;;11.55;100.00
65329;BME280;51941;52.210;5.158;2023-03-23T06:25:30;100081.88;;;11.57;100.00
65329;BME280;51941;52.210;5.158;2023-03-23T06:27:57;100095.41;;;11.61;100.00
65329;BME280;51941;52.210;5.158;2023-03-23T06:30:26;100058.44;;;11.44;100.00
65329;BME280;51941;52.210;5.158;2023-03-23T06:32:55;100095.94;;;11.63;100.00
65329;BME280;51941;52.210;5.158;2023-03-23T06:35:42;100082.63;;;11.53;100.00
65329;BME280;51941;52.210;5.158;2023-03-23T06:38:19;100096.38;;;11.50;100.00
65329;BME280;51941;52.210;5.158;2023-03-23T06:40:51;100108.41;;;11.62;100.00
65329;BME280;51941;52.210;5.158;2023-03-23T06:43:18;100114.19;;;11.59;100.00
65329;BME280;51941;52.210;5.158;2023-03-23T06:45:59;100074.25;;;11.29;100.00
65329;BME280;51941;52.210;5.158;2023-03-23T06:48:53;100113.41;;;11.59;100.00
65329;BME280;51941;52.210;5.158;2023-03-23T06:51:29;100124.28;;;11.57;100.00
65329;BME280;51941;52.210;5.158;2023-03-23T06:53:55;100119.81;;;11.68;100.00
65329;BME280;51941;52.210;5.158;2023-03-23T06:56:25;100114.03;;;11.76;100.00
65329;BME280;51941;52.210;5.158;2023-03-23T06:58:52;100110.88;;;11.79;100.00
65329;BME280;51941;52.210;5.158;2023-03-23T07:01:22;100117.78;;;11.80;100.00
65329;BME280;51941;52.210;5.158;2023-03-23T07:03:55;100119.41;;;11.86;100.00
65329;BME280;51941;52.210;5.158;2023-03-23T07:06:34;100100.75;;;11.66;100.00
65329;BME280;51941;52.210;5.158;2023-03-23T07:09:01;100077.31;;;11.53;100.00
65329;BME280;51941;52.210;5.158;2023-03-23T07:11:29;100117.31;;;11.88;100.00
65329;BME280;51941;52.210;5.158;2023-03-23T07:14:00;100121.38;;;12.01;100.00
65329;BME280;51941;52.210;5.158;2023-03-23T07:16:29;100126.41;;;12.02;100.00
65329;BME280;51941;52.210;5.158;2023-03-23T07:18:56;100114.72;;;12.03;100.00
65329;BME280;51941;52.210;5.158;2023-03-23T07:21:23;100113.72;;;12.09;100.00
65329;BME280;51941;52.210;5.158;2023-03-23T07:23:50;100123.06;;;12.17;100.00
65329;BME280;51941;52.210;5.158;2023-03-23T07:26:29;100132.94;;;12.27;100.00
65329;BME280;51941;52.210;5.158;2023-03-23T07:28:55;100124.69;;;12.28;100.00
65329;BME280;51941;52.210;5.158;2023-03-23T07:31:29;100131.09;;;12.32;100.00
65329;BME280;51941;52.210;5.158;2023-03-23T07:33:57;100133.75;;;12.32;100.00
65329;BME280;51941;52.210;5.158;2023-03-23T07:36:33;100139.56;;;12.29;100.00
65329;BME280;51941;52.210;5.158;2023-03-23T07:39:04;100124.84;;;12.11;100.00
65329;BME280;51941;52.210;5.158;2023-03-23T07:41:32;100150.16;;;12.24;100.00
65329;BME280;51941;52.210;5.158;2023-03-23T07:44:05;100109.69;;;12.02;100.00
65329;BME280;51941;52.210;5.158;2023-03-23T07:46:37;100148.06;;;12.26;100.00
65329;BME280;51941;52.210;5.158;2023-03-23T07:49:11;100154.44;;;12.30;100.00
65329;BME280;51941;52.210;5.158;2023-03-23T07:51:46;100153.41;;;12.36;100.00
65329;BME280;51941;52.210;5.158;2023-03-23T07:54:14;100144.97;;;12.44;100.00
65329;BME280;51941;52.210;5.158;2023-03-23T07:57:04;100141.50;;;12.49;100.00
65329;BME280;51941;52.210;5.158;2023-03-23T07:59:36;100115.47;;;12.36;100.00
65329;BME280;51941;52.210;5.158;2023-03-23T08:02:04;100141.56;;;12.54;100.00
65329;BME280;51941;52.210;5.158;2023-03-23T08:04:39;100130.59;;;12.35;100.00
65329;BME280;51941;52.210;5.158;2023-03-23T08:07:28;100156.41;;;12.55;100.00
65329;BME280;51941;52.210;5.158;2023-03-23T08:10:22;100156.47;;;12.75;100.00
65329;BME280;51941;52.210;5.158;2023-03-23T08:12:57;100136.78;;;12.66;100.00
65329;BME280;51941;52.210;5.158;2023-03-23T08:15:49;100159.94;;;12.81;100.00
65329;BME280;51941;52.210;5.158;2023-03-23T08:18:29;100126.19;;;12.66;100.00
65329;BME280;51941;52.210;5.158;2023-03-23T08:21:12;100171.16;;;13.03;100.00
65329;BME280;51941;52.210;5.158;2023-03-23T08:24:08;100154.69;;;13.11;100.00
65329;BME280;51941;52.210;5.158;2023-03-23T08:26:53;100158.44;;;13.30;100.00
65329;BME280;51941;52.210;5.158;2023-03-23T08:29:22;100165.38;;;13.31;100.00
65329;BME280;51941;52.210;5.158;2023-03-23T08:31:50;100149.94;;;13.28;100.00
65329;BME280;51941;52.210;5.158;2023-03-23T08:34:38;100157.88;;;13.18;100.00
65329;BME280;51941;52.210;5.158;2023-03-23T08:37:10;100135.53;;;12.99;100.00
65329;BME280;51941;52.210;5.158;2023-03-23T08:39:52;100145.16;;;13.15;100.00
65329;BME280;51941;52.210;5.158;2023-03-23T08:42:25;100171.50;;;13.47;100.00
65329;BME280;51941;52.210;5.158;2023-03-23T08:45:06;100167.78;;;13.48;100.00
65329;BME280;51941;52.210;5.158;2023-03-23T08:47:46;100177.09;;;13.56;100.00
65329;BME280;51941;52.210;5.158;2023-03-23T08:50:36;100173.88;;;13.69;100.00
65329;BME280;51941;52.210;5.158;2023-03-23T08:53:21;100179.22;;;13.84;100.00
65329;BME280;51941;52.210;5.158;2023-03-23T08:56:18;100165.63;;;13.96;100.00
65329;BME280;51941;52.210;5.158;2023-03-23T08:59:03;100179.16;;;14.15;100.00
65329;BME280;51941;52.210;5.158;2023-03-23T09:01:50;100183.94;;;14.18;100.00
65329;BME280;51941;52.210;5.158;2023-03-23T09:04:40;100180.75;;;14.16;100.00
65329;BME280;51941;52.210;5.158;2023-03-23T09:07:27;100182.31;;;14.22;100.00
65329;BME280;51941;52.210;5.158;2023-03-23T09:09:54;100184.97;;;14.22;100.00
65329;BME280;51941;52.210;5.158;2023-03-23T09:12:21;100190.28;;;14.37;100.00
65329;BME280;51941;52.210;5.158;2023-03-23T09:14:48;100182.00;;;14.43;100.00
65329;BME280;51941;52.210;5.158;2023-03-23T09:17:15;100189.69;;;14.60;100.00
65329;BME280;51941;52.210;5.158;2023-03-23T09:19:42;100188.31;;;14.73;100.00
65329;BME280;51941;52.210;5.158;2023-03-23T09:22:08;100176.88;;;14.72;100.00
65329;BME280;51941;52.210;5.158;2023-03-23T09:24:36;100180.78;;;14.90;100.00
65329;BME280;51941;52.210;5.158;2023-03-23T09:27:03;100186.28;;;15.09;100.00
65329;BME280;51941;52.210;5.158;2023-03-23T09:29:30;100178.69;;;15.26;100.00
65329;BME280;51941;52.210;5.158;2023-03-23T09:31:57;100188.78;;;15.29;98.74
65329;BME280;51941;52.210;5.158;2023-03-23T09:34:23;100197.06;;;15.28;96.60
65329;BME280;51941;52.210;5.158;2023-03-23T09:36:50;100190.97;;;15.22;95.73
65329;BME280;51941;52.210;5.158;2023-03-23T09:39:17;100191.50;;;15.24;96.31
65329;BME280;51941;52.210;5.158;2023-03-23T09:42:02;100163.41;;;14.93;91.20
65329;BME280;51941;52.210;5.158;2023-03-23T09:44:43;100204.44;;;14.97;91.25
65329;BME280;51941;52.210;5.158;2023-03-23T09:47:21;100193.84;;;14.87;90.31
65329;BME280;51941;52.210;5.158;2023-03-23T09:49:53;100202.88;;;14.91;90.98
65329;BME280;51941;52.210;5.158;2023-03-23T09:52:21;100172.56;;;14.76;90.94
65329;BME280;51941;52.210;5.158;2023-03-23T09:54:51;100213.03;;;14.89;89.67
65329;BME280;51941;52.210;5.158;2023-03-23T09:57:24;100183.56;;;14.65;88.86
65329;BME280;51941;52.210;5.158;2023-03-23T09:59:57;100208.22;;;14.91;89.53
65329;BME280;51941;52.210;5.158;2023-03-23T10:02:29;100216.22;;;14.86;88.16
65329;BME280;51941;52.210;5.158;2023-03-23T10:05:12;100214.34;;;14.86;87.84
65329;BME280;51941;52.210;5.158;2023-03-23T10:07:42;100221.00;;;14.89;87.79
65329;BME280;51941;52.210;5.158;2023-03-23T10:10:12;100225.78;;;14.97;87.83
65329;BME280;51941;52.210;5.158;2023-03-23T10:12:44;100231.84;;;15.07;88.26
65329;BME280;51941;52.210;5.158;2023-03-23T10:15:17;100226.22;;;15.14;87.89
65329;BME280;51941;52.210;5.158;2023-03-23T10:17:50;100240.25;;;15.30;87.37
65329;BME280;51941;52.210;5.158;2023-03-23T10:20:24;100230.28;;;15.45;88.08
65329;BME280;51941;52.210;5.158;2023-03-23T10:23:00;100235.59;;;15.50;86.82
65329;BME280;51941;52.210;5.158;2023-03-23T10:25:29;100240.06;;;15.60;86.72
65329;BME280;51941;52.210;5.158;2023-03-23T10:28:01;100240.81;;;15.71;86.64
65329;BME280;51941;52.210;5.158;2023-03-23T10:30:33;100244.09;;;15.91;86.11
65329;BME280;51941;52.210;5.158;2023-03-23T10:33:03;100241.63;;;16.00;85.64
65329;BME280;51941;52.210;5.158;2023-03-23T10:35:35;100234.88;;;16.08;85.20
65329;BME280;51941;52.210;5.158;2023-03-23T10:38:09;100245.69;;;16.21;84.78
65329;BME280;51941;52.210;5.158;2023-03-23T10:40:47;100235.72;;;16.32;82.01
65329;BME280;51941;52.210;5.158;2023-03-23T10:43:16;100223.09;;;16.14;81.14
65329;BME280;51941;52.210;5.158;2023-03-23T10:45:44;100251.31;;;16.20;81.54
65329;BME280;51941;52.210;5.158;2023-03-23T10:48:21;100243.06;;;16.16;81.46
65329;BME280;51941;52.210;5.158;2023-03-23T10:50:51;100233.47;;;16.15;80.29
65329;BME280;51941;52.210;5.158;2023-03-23T10:53:23;100241.00;;;16.37;80.92
65329;BME280;51941;52.210;5.158;2023-03-23T10:55:51;100244.38;;;16.48;79.72
65329;BME280;51941;52.210;5.158;2023-03-23T10:58:25;100245.81;;;16.35;75.73
65329;BME280;51941;52.210;5.158;2023-03-23T11:00:54;100253.66;;;16.26;75.13
65329;BME280;51941;52.210;5.158;2023-03-23T11:03:29;100254.78;;;16.20;75.48
65329;BME280;51941;52.210;5.158;2023-03-23T11:06:02;100238.22;;;15.89;75.19
65329;BME280;51941;52.210;5.158;2023-03-23T11:08:32;100253.94;;;15.57;73.24
65329;BME280;51941;52.210;5.158;2023-03-23T11:11:09;100261.66;;;15.59;75.38
65329;BME280;51941;52.210;5.158;2023-03-23T11:13:41;100250.16;;;15.24;77.01
65329;BME280;51941;52.210;5.158;2023-03-23T11:16:10;100261.25;;;15.41;78.67
65329;BME280;51941;52.210;5.158;2023-03-23T11:18:38;100243.22;;;15.23;78.83
65329;BME280;51941;52.210;5.158;2023-03-23T11:21:07;100252.81;;;15.24;79.51
65329;BME280;51941;52.210;5.158;2023-03-23T11:23:37;100263.25;;;15.15;80.05
65329;BME280;51941;52.210;5.158;2023-03-23T11:26:11;100268.59;;;15.10;80.70
65329;BME280;51941;52.210;5.158;2023-03-23T11:28:45;100222.63;;;14.85;80.40
65329;BME280;51941;52.210;5.158;2023-03-23T11:31:13;100252.16;;;14.93;78.79
65329;BME280;51941;52.210;5.158;2023-03-23T11:33:48;100264.38;;;15.04;78.39
65329;BME280;51941;52.210;5.158;2023-03-23T11:36:17;100266.22;;;15.09;78.49
65329;BME280;51941;52.210;5.158;2023-03-23T11:38:45;100271.00;;;15.12;78.42
65329;BME280;51941;52.210;5.158;2023-03-23T11:41:16;100261.97;;;15.08;78.41
65329;BME280;51941;52.210;5.158;2023-03-23T11:43:46;100264.59;;;15.18;77.65
65329;BME280;51941;52.210;5.158;2023-03-23T11:46:22;100262.06;;;15.37;77.27
65329;BME280;51941;52.210;5.158;2023-03-23T11:48:56;100254.38;;;15.35;76.14
65329;BME280;51941;52.210;5.158;2023-03-23T11:51:29;100239.47;;;15.24;75.57
65329;BME280;51941;52.210;5.158;2023-03-23T11:54:00;100241.56;;;15.32;75.71
65329;BME280;51941;52.210;5.158;2023-03-23T11:56:30;100253.69;;;15.53;76.06
65329;BME280;51941;52.210;5.158;2023-03-23T11:59:01;100213.66;;;15.53;75.34
65329;BME280;51941;52.210;5.158;2023-03-23T12:01:48;100249.50;;;15.86;73.50
65329;BME280;51941;52.210;5.158;2023-03-23T12:04:40;100239.41;;;16.07;69.71
65329;BME280;51941;52.210;5.158;2023-03-23T12:07:28;100237.63;;;16.26;68.94
65329;BME280;51941;52.210;5.158;2023-03-23T12:10:05;100248.63;;;16.49;68.55
65329;BME280;51941;52.210;5.158;2023-03-23T12:12:46;100254.28;;;16.71;67.80
65329;BME280;51941;52.210;5.158;2023-03-23T12:15:22;100258.47;;;16.77;67.06
65329;BME280;51941;52.210;5.158;2023-03-23T12:18:01;100265.56;;;16.87;67.38
65329;BME280;51941;52.210;5.158;2023-03-23T12:20:39;100260.75;;;16.89;67.59
65329;BME280;51941;52.210;5.158;2023-03-23T12:23:20;100233.94;;;16.75;67.50
65329;BME280;51941;52.210;5.158;2023-03-23T12:26:16;100251.81;;;16.98;68.13
65329;BME280;51941;52.210;5.158;2023-03-23T12:31:49;100253.44;;;16.94;68.12
65329;BME280;51941;52.210;5.158;2023-03-23T12:34:27;100246.38;;;17.03;67.21
65329;BME280;51941;52.210;5.158;2023-03-23T12:37:13;100245.59;;;17.22;65.91
65329;BME280;51941;52.210;5.158;2023-03-23T12:40:06;100248.28;;;17.22;63.37
65329;BME280;51941;52.210;5.158;2023-03-23T12:42:43;100225.94;;;17.13;64.21
65329;BME280;51941;52.210;5.158;2023-03-23T12:45:19;100229.53;;;16.84;62.58
65329;BME280;51941;52.210;5.158;2023-03-23T12:47:53;100232.06;;;16.76;64.46
65329;BME280;51941;52.210;5.158;2023-03-23T12:50:28;100241.34;;;16.78;65.78
65329;BME280;51941;52.210;5.158;2023-03-23T12:53:00;100236.59;;;16.75;65.52
65329;BME280;51941;52.210;5.158;2023-03-23T12:55:34;100238.25;;;16.71;64.37
65329;BME280;51941;52.210;5.158;2023-03-23T12:58:05;100228.78;;;16.79;65.51
65329;BME280;51941;52.210;5.158;2023-03-23T13:00:48;100217.03;;;16.80;65.81
65329;BME280;51941;52.210;5.158;2023-03-23T13:03:22;100225.44;;;16.92;65.99
65329;BME280;51941;52.210;5.158;2023-03-23T13:05:53;100230.94;;;17.00;66.06
65329;BME280;51941;52.210;5.158;2023-03-23T13:08:23;100225.00;;;17.03;65.94
65329;BME280;51941;52.210;5.158;2023-03-23T13:10:55;100231.22;;;16.99;65.37
65329;BME280;51941;52.210;5.158;2023-03-23T13:13:39;100237.91;;;16.96;65.21
65329;BME280;51941;52.210;5.158;2023-03-23T13:16:11;100250.44;;;17.01;65.84
65329;BME280;51941;52.210;5.158;2023-03-23T13:18:48;100256.78;;;17.05;66.63
65329;BME280;51941;52.210;5.158;2023-03-23T13:21:20;100261.25;;;16.91;66.29
65329;BME280;51941;52.210;5.158;2023-03-23T13:23:53;100258.22;;;16.97;67.15